Time;durP1;ratioP1;P1;durP2;ratioP2;P2;SDS_P1;SDS_P2;PMS_P1;PMS_P2;Temp;Humidity;BMP_temperature;BMP_pressure;BME280_temperature;BME280_humidity;BME280_pressure;Samples;Min_cycle;Max_cycle;Signal;HPM_P1;HPM_P2
2021/10/16 00:01:45;;;;;;;54.85;10.20;;;;;;;;;;5028557;28;20033;-58
2021/10/16 00:04:12;;;;;;;62.45;10.98;;;;;;;;;;5030130;28;20022;-60
2021/10/16 00:06:39;;;;;;;62.72;10.77;;;;;;;;;;5030323;28;20021;-53
2021/10/16 00:09:07;;;;;;;58.85;9.73;;;;;;;;;;5028882;28;20372;-59
2021/10/16 00:11:34;;;;;;;118.22;12.63;;;;;;;;;;5031316;28;20022;-58
2021/10/16 00:14:01;;;;;;;140.32;15.00;;;;;;;;;;5029706;28;20067;-58
2021/10/16 00:16:28;;;;;;;95.60;11.90;;;;;;;;;;5026653;28;20516;-59
2021/10/16 00:18:55;;;;;;;82.03;13.00;;;;;;;;;;5003368;28;20091;-60
2021/10/16 00:21:22;;;;;;;58.50;10.90;;;;;;;;;;5003563;28;20030;-54
2021/10/16 00:23:49;;;;;;;62.70;12.10;;;;;;;;;;5029628;28;20079;-52
2021/10/16 00:26:16;;;;;;;70.65;11.10;;;;;;;;;;5030069;28;20112;-57
2021/10/16 00:28:43;;;;;;;69.15;11.60;;;;;;;;;;5029463;28;20529;-53
2021/10/16 00:31:10;;;;;;;58.22;10.40;;;;;;;;;;5025494;28;20358;-53
2021/10/16 00:33:37;;;;;;;67.45;12.00;;;;;;;;;;5023544;28;20715;-56
2021/10/16 00:36:04;;;;;;;63.25;10.80;;;;;;;;;;5026830;28;20038;-56
2021/10/16 00:38:31;;;;;;;57.80;11.45;;;;;;;;;;5026603;28;20021;-57
2021/10/16 00:40:58;;;;;;;53.47;10.43;;;;;;;;;;5023102;28;20030;-52
2021/10/16 00:43:26;;;;;;;66.28;11.32;;;;;;;;;;5020340;28;20033;-59
2021/10/16 00:45:53;;;;;;;64.50;10.25;;;;;;;;;;5022507;28;20060;-56
2021/10/16 00:48:20;;;;;;;84.50;12.05;;;;;;;;;;5019225;28;20036;-48
2021/10/16 00:50:47;;;;;;;66.03;10.90;;;;;;;;;;5023523;28;20029;-56
2021/10/16 00:53:14;;;;;;;64.28;10.48;;;;;;;;;;5009756;28;20037;-48
2021/10/16 00:55:42;;;;;;;52.03;10.45;;;;;;;;;;5022707;28;20107;-58
2021/10/16 00:58:09;;;;;;;53.15;10.57;;;;;;;;;;5024953;28;20033;-53
2021/10/16 01:00:36;;;;;;;68.78;11.27;;;;;;;;;;5026502;28;20033;-56
2021/10/16 01:03:04;;;;;;;53.72;10.27;;;;;;;;;;5027904;28;20053;-53
2021/10/16 01:05:33;;;;;;;61.05;10.70;;;;;;;;;;5020459;28;20472;-57
2021/10/16 01:08:02;;;;;;;57.35;9.95;;;;;;;;;;5026076;28;20021;-50
2021/10/16 01:10:29;;;;;;;49.13;9.13;;;;;;;;;;5025183;28;20028;-47
2021/10/16 01:12:56;;;;;;;58.05;10.23;;;;;;;;;;5023151;28;20080;-53
2021/10/16 01:15:24;;;;;;;52.55;10.27;;;;;;;;;;5022503;28;20045;-49
2021/10/16 01:17:52;;;;;;;52.67;10.75;;;;;;;;;;5023173;28;20499;-47
2021/10/16 01:20:24;;;;;;;49.38;10.20;;;;;;;;;;5027215;28;20037;-53
2021/10/16 01:22:52;;;;;;;56.65;9.88;;;;;;;;;;5028430;28;20018;-52
2021/10/16 01:25:21;;;;;;;49.58;9.40;;;;;;;;;;5027067;28;20048;-50
2021/10/16 01:27:48;;;;;;;45.65;7.90;;;;;;;;;;5026193;28;20372;-53
2021/10/16 01:30:17;;;;;;;43.42;9.43;;;;;;;;;;5021052;28;20100;-50
2021/10/16 01:32:44;;;;;;;45.28;9.80;;;;;;;;;;5017173;28;20061;-48
2021/10/16 01:35:11;;;;;;;59.20;9.00;;;;;;;;;;5027763;28;20080;-49
2021/10/16 01:37:43;;;;;;;46.78;9.27;;;;;;;;;;5021752;28;20021;-49
2021/10/16 01:40:11;;;;;;;40.83;9.73;;;;;;;;;;5006806;28;20033;-58
2021/10/16 01:42:42;;;;;;;49.75;9.27;;;;;;;;;;5011818;28;20025;-47
2021/10/16 01:45:10;;;;;;;33.50;8.57;;;;;;;;;;5021745;28;20022;-50
2021/10/16 01:47:53;;;;;;;49.92;8.50;;;;;;;;;;5029713;28;20021;-51
2021/10/16 01:50:22;;;;;;;46.30;8.63;;;;;;;;;;5029523;28;20033;-49
2021/10/16 01:52:49;;;;;;;45.22;8.40;;;;;;;;;;5024964;28;20049;-48
2021/10/16 01:55:16;;;;;;;44.85;8.00;;;;;;;;;;5028571;28;20041;-50
2021/10/16 01:57:44;;;;;;;46.72;8.35;;;;;;;;;;5029974;28;20044;-52
2021/10/16 02:00:12;;;;;;;41.38;8.05;;;;;;;;;;5014819;28;20033;-44
2021/10/16 02:02:39;;;;;;;38.60;7.50;;;;;;;;;;5014590;28;20033;-51
2021/10/16 02:05:07;;;;;;;33.45;7.97;;;;;;;;;;5027656;28;20017;-54
2021/10/16 02:07:34;;;;;;;46.97;7.97;;;;;;;;;;5021462;28;20026;-49
2021/10/16 02:10:02;;;;;;;37.53;7.18;;;;;;;;;;5030707;28;20041;-53
2021/10/16 02:12:29;;;;;;;42.30;9.55;;;;;;;;;;5033217;28;20032;-51
2021/10/16 02:14:56;;;;;;;34.53;7.10;;;;;;;;;;5028698;28;20036;-50
2021/10/16 02:17:23;;;;;;;38.78;7.25;;;;;;;;;;5019066;28;20026;-49
2021/10/16 02:19:50;;;;;;;53.42;8.10;;;;;;;;;;5027039;28;20037;-51
2021/10/16 02:22:17;;;;;;;24.83;6.78;;;;;;;;;;5021380;28;20557;-54
2021/10/16 02:24:44;;;;;;;29.08;6.68;;;;;;;;;;5030759;28;20060;-50
2021/10/16 02:27:11;;;;;;;27.48;6.18;;;;;;;;;;5022321;28;20091;-55
2021/10/16 02:29:38;;;;;;;39.03;7.57;;;;;;;;;;5034568;28;20056;-55
2021/10/16 02:32:05;;;;;;;33.97;6.72;;;;;;;;;;5015677;28;20388;-53
2021/10/16 02:34:32;;;;;;;24.05;6.72;;;;;;;;;;5033533;28;20087;-53
2021/10/16 02:36:59;;;;;;;25.55;6.65;;;;;;;;;;5034124;28;20480;-57
2021/10/16 02:39:27;;;;;;;31.33;6.45;;;;;;;;;;5034243;28;20033;-57
2021/10/16 02:41:56;;;;;;;24.55;6.45;;;;;;;;;;5033569;28;20435;-48
2021/10/16 02:44:23;;;;;;;26.30;5.97;;;;;;;;;;5033193;28;20021;-53
2021/10/16 02:46:50;;;;;;;31.80;6.30;;;;;;;;;;5034156;28;20061;-57
2021/10/16 02:49:17;;;;;;;18.83;5.30;;;;;;;;;;5033621;28;20045;-52
2021/10/16 02:51:45;;;;;;;27.20;5.95;;;;;;;;;;5034740;28;20443;-61
2021/10/16 02:54:12;;;;;;;26.85;5.90;;;;;;;;;;5034447;28;20488;-53
2021/10/16 02:56:39;;;;;;;24.65;5.90;;;;;;;;;;5033694;28;20102;-47
2021/10/16 02:59:06;;;;;;;22.40;5.93;;;;;;;;;;5033436;28;20025;-52
2021/10/16 03:01:33;;;;;;;23.27;6.25;;;;;;;;;;5032537;28;20116;-59
2021/10/16 03:04:00;;;;;;;38.10;6.55;;;;;;;;;;5032450;28;20025;-54
2021/10/16 03:06:27;;;;;;;18.08;6.00;;;;;;;;;;5033092;28;20409;-59
2021/10/16 03:08:54;;;;;;;32.13;6.65;;;;;;;;;;5033959;28;20955;-52
2021/10/16 03:11:22;;;;;;;22.85;5.32;;;;;;;;;;5025886;28;20525;-47
2021/10/16 03:13:49;;;;;;;18.88;5.63;;;;;;;;;;5025160;28;20020;-55
2021/10/16 03:16:17;;;;;;;31.98;6.60;;;;;;;;;;5032234;28;20026;-54
2021/10/16 03:18:44;;;;;;;31.80;6.82;;;;;;;;;;5031493;28;20408;-52
2021/10/16 03:21:11;;;;;;;23.10;5.65;;;;;;;;;;5022990;28;20025;-49
2021/10/16 03:23:38;;;;;;;24.48;5.97;;;;;;;;;;5032062;28;20596;-47
2021/10/16 03:26:05;;;;;;;26.70;6.10;;;;;;;;;;5031580;28;20477;-51
2021/10/16 03:28:32;;;;;;;22.77;5.45;;;;;;;;;;5032533;28;20029;-52
2021/10/16 03:31:00;;;;;;;28.23;5.47;;;;;;;;;;5013512;28;20021;-49
2021/10/16 03:33:27;;;;;;;27.52;5.53;;;;;;;;;;5031246;28;20025;-46
2021/10/16 03:35:54;;;;;;;19.73;5.40;;;;;;;;;;5031705;28;20052;-52
2021/10/16 03:38:21;;;;;;;25.88;5.60;;;;;;;;;;5031117;28;20033;-51
2021/10/16 03:40:49;;;;;;;23.92;5.47;;;;;;;;;;5030266;28;20054;-56
2021/10/16 03:43:16;;;;;;;25.20;5.10;;;;;;;;;;5030909;28;20014;-56
2021/10/16 03:45:42;;;;;;;20.63;5.32;;;;;;;;;;5032049;28;20037;-55
2021/10/16 03:48:09;;;;;;;17.48;5.65;;;;;;;;;;5031885;28;20097;-51
2021/10/16 03:50:36;;;;;;;24.02;5.55;;;;;;;;;;5011901;28;20071;-51
2021/10/16 03:53:03;;;;;;;20.67;4.93;;;;;;;;;;5030687;28;20113;-55
2021/10/16 03:55:30;;;;;;;29.70;5.28;;;;;;;;;;5031080;28;20045;-50
2021/10/16 03:57:57;;;;;;;18.70;5.18;;;;;;;;;;5030424;28;20060;-51
2021/10/16 04:00:25;;;;;;;23.50;5.60;;;;;;;;;;5029808;28;20475;-54
2021/10/16 04:02:53;;;;;;;18.55;4.55;;;;;;;;;;5030384;28;20021;-50
2021/10/16 04:05:20;;;;;;;15.77;4.70;;;;;;;;;;5028187;28;20045;-52
2021/10/16 04:07:47;;;;;;;20.42;4.68;;;;;;;;;;5027953;28;20024;-51
2021/10/16 04:10:15;;;;;;;15.90;4.80;;;;;;;;;;5029382;28;20393;-49
2021/10/16 04:12:42;;;;;;;24.17;4.72;;;;;;;;;;5030765;28;20032;-50
2021/10/16 04:15:09;;;;;;;25.85;4.93;;;;;;;;;;5011265;28;20079;-52
2021/10/16 04:17:36;;;;;;;22.67;4.97;;;;;;;;;;5032012;28;20022;-47
2021/10/16 04:20:04;;;;;;;19.88;4.65;;;;;;;;;;5031676;28;20037;-50
2021/10/16 04:22:31;;;;;;;10.82;3.92;;;;;;;;;;5031627;28;20040;-55
2021/10/16 04:24:58;;;;;;;17.70;4.82;;;;;;;;;;5032306;28;20116;-55
2021/10/16 04:27:25;;;;;;;15.48;4.55;;;;;;;;;;5032184;28;20613;-56
2021/10/16 04:29:52;;;;;;;20.95;4.65;;;;;;;;;;5031701;28;20115;-57
2021/10/16 04:32:20;;;;;;;17.63;4.60;;;;;;;;;;5030940;28;20501;-49
2021/10/16 04:34:47;;;;;;;16.88;4.63;;;;;;;;;;5031016;28;20717;-57
2021/10/16 04:37:15;;;;;;;17.55;3.95;;;;;;;;;;5031663;28;20021;-55
2021/10/16 04:39:42;;;;;;;15.48;3.90;;;;;;;;;;5031090;28;20155;-55
2021/10/16 04:42:12;;;;;;;14.73;4.15;;;;;;;;;;5029929;28;20022;-49
2021/10/16 04:44:40;;;;;;;14.70;3.75;;;;;;;;;;5031777;28;20022;-53
2021/10/16 04:47:08;;;;;;;16.33;4.53;;;;;;;;;;5031285;28;20025;-54
2021/10/16 04:49:36;;;;;;;15.50;4.10;;;;;;;;;;5031557;28;20389;-54
2021/10/16 04:52:04;;;;;;;16.02;4.07;;;;;;;;;;5030856;28;20017;-54
2021/10/16 04:54:31;;;;;;;13.93;3.78;;;;;;;;;;5031050;28;20393;-54
2021/10/16 04:56:58;;;;;;;13.63;3.88;;;;;;;;;;5031914;28;20476;-53
2021/10/16 04:59:26;;;;;;;14.80;4.00;;;;;;;;;;5031635;28;20026;-46
2021/10/16 05:01:54;;;;;;;13.77;3.80;;;;;;;;;;5031217;28;20033;-53
2021/10/16 05:04:22;;;;;;;11.73;3.38;;;;;;;;;;5031532;28;20104;-48
2021/10/16 05:06:49;;;;;;;15.75;3.33;;;;;;;;;;5031609;28;20033;-50
2021/10/16 05:09:16;;;;;;;14.68;3.88;;;;;;;;;;5032098;28;20061;-56
2021/10/16 05:11:43;;;;;;;12.68;3.90;;;;;;;;;;5030859;28;20079;-54
2021/10/16 05:14:10;;;;;;;17.55;3.70;;;;;;;;;;5031692;28;20026;-67
2021/10/16 05:16:37;;;;;;;17.65;3.78;;;;;;;;;;5029697;28;20582;-58
2021/10/16 05:19:04;;;;;;;10.88;3.13;;;;;;;;;;5031813;28;20028;-56
2021/10/16 05:21:32;;;;;;;13.60;3.67;;;;;;;;;;5012595;28;20747;-48
2021/10/16 05:23:59;;;;;;;11.30;3.05;;;;;;;;;;5031297;28;20010;-54
2021/10/16 05:26:26;;;;;;;12.15;3.42;;;;;;;;;;5030462;28;20034;-52
2021/10/16 05:28:56;;;;;;;14.35;3.72;;;;;;;;;;5029580;28;20017;-52
2021/10/16 05:31:23;;;;;;;13.38;3.92;;;;;;;;;;5029222;28;20037;-51
2021/10/16 05:33:51;;;;;;;14.05;3.40;;;;;;;;;;5030668;28;20025;-53
2021/10/16 05:36:18;;;;;;;15.20;3.08;;;;;;;;;;5031000;28;20037;-48
2021/10/16 05:38:45;;;;;;;10.73;2.92;;;;;;;;;;5030831;28;20020;-52
2021/10/16 05:41:12;;;;;;;13.95;3.20;;;;;;;;;;5027831;28;20037;-53
2021/10/16 05:43:39;;;;;;;10.32;3.30;;;;;;;;;;5031200;28;20125;-60
2021/10/16 05:46:06;;;;;;;8.48;2.63;;;;;;;;;;5031757;28;20026;-55
2021/10/16 05:48:33;;;;;;;9.13;2.50;;;;;;;;;;5031002;28;20026;-50
2021/10/16 05:51:00;;;;;;;10.82;2.78;;;;;;;;;;5031601;28;20546;-55
2021/10/16 05:53:28;;;;;;;10.25;3.00;;;;;;;;;;5029599;28;20033;-51
2021/10/16 05:55:55;;;;;;;7.72;2.63;;;;;;;;;;5030505;28;20052;-52
2021/10/16 05:58:22;;;;;;;9.38;3.05;;;;;;;;;;5030833;28;20492;-53
2021/10/16 06:00:49;;;;;;;13.75;3.42;;;;;;;;;;5030878;28;20088;-54
2021/10/16 06:03:16;;;;;;;17.75;3.63;;;;;;;;;;5030570;28;20021;-50
2021/10/16 06:05:43;;;;;;;16.58;3.40;;;;;;;;;;5030593;28;20104;-51
2021/10/16 06:08:10;;;;;;;18.15;3.55;;;;;;;;;;5030326;28;20018;-52
2021/10/16 06:10:37;;;;;;;19.27;3.38;;;;;;;;;;5031319;28;20068;-54
2021/10/16 06:13:05;;;;;;;22.63;3.28;;;;;;;;;;5030930;28;20022;-53
2021/10/16 06:15:32;;;;;;;16.10;3.53;;;;;;;;;;5031248;28;20374;-53
2021/10/16 06:18:01;;;;;;;9.00;2.92;;;;;;;;;;5031742;28;20431;-53
2021/10/16 06:20:30;;;;;;;10.55;2.75;;;;;;;;;;5031074;28;20463;-51
2021/10/16 06:22:57;;;;;;;11.10;2.88;;;;;;;;;;5031599;28;20022;-56
2021/10/16 06:25:24;;;;;;;10.55;2.60;;;;;;;;;;5031798;28;20052;-53
2021/10/16 06:27:51;;;;;;;11.02;2.97;;;;;;;;;;5033019;28;20087;-53
2021/10/16 06:30:18;;;;;;;10.75;2.63;;;;;;;;;;5035364;28;20389;-55
2021/10/16 06:32:45;;;;;;;14.90;3.17;;;;;;;;;;5035218;28;20156;-54
2021/10/16 06:35:12;;;;;;;10.68;2.97;;;;;;;;;;5034577;28;20386;-49
2021/10/16 06:37:40;;;;;;;8.27;2.55;;;;;;;;;;5034476;28;20373;-55
2021/10/16 06:40:07;;;;;;;11.18;2.75;;;;;;;;;;5034475;28;20036;-53
2021/10/16 06:42:34;;;;;;;8.63;2.53;;;;;;;;;;5016919;28;20438;-58
2021/10/16 06:45:01;;;;;;;16.70;3.05;;;;;;;;;;5034682;28;20038;-54
2021/10/16 06:47:28;;;;;;;11.65;2.60;;;;;;;;;;5035296;28;20461;-54
2021/10/16 06:49:55;;;;;;;12.15;2.78;;;;;;;;;;5035098;28;20362;-58
2021/10/16 06:52:22;;;;;;;8.05;2.67;;;;;;;;;;5034640;28;20025;-54
2021/10/16 06:54:49;;;;;;;8.63;2.38;;;;;;;;;;5034737;28;20448;-58
2021/10/16 06:57:16;;;;;;;6.53;2.15;;;;;;;;;;5034918;28;20025;-59
2021/10/16 06:59:43;;;;;;;6.60;1.90;;;;;;;;;;5034559;28;20390;-49
2021/10/16 07:02:11;;;;;;;6.70;2.10;;;;;;;;;;5034903;28;20025;-50
2021/10/16 07:04:37;;;;;;;8.13;2.33;;;;;;;;;;5033444;28;20029;-55
2021/10/16 07:07:05;;;;;;;7.40;1.98;;;;;;;;;;5034103;28;20022;-54
2021/10/16 07:09:32;;;;;;;6.78;2.05;;;;;;;;;;5016820;28;20036;-54
2021/10/16 07:11:59;;;;;;;7.07;2.42;;;;;;;;;;5033691;28;20384;-53
2021/10/16 07:14:26;;;;;;;5.13;2.08;;;;;;;;;;5034247;28;20014;-57
2021/10/16 07:16:53;;;;;;;6.38;1.98;;;;;;;;;;5034097;28;20401;-53
2021/10/16 07:19:20;;;;;;;4.38;1.75;;;;;;;;;;5034224;28;20112;-54
2021/10/16 07:21:47;;;;;;;4.85;1.75;;;;;;;;;;5034170;28;20027;-57
2021/10/16 07:24:15;;;;;;;4.95;1.67;;;;;;;;;;5033363;28;20032;-58
2021/10/16 07:26:42;;;;;;;7.10;2.38;;;;;;;;;;5034212;28;20412;-55
2021/10/16 07:29:09;;;;;;;5.13;1.73;;;;;;;;;;5034006;28;20119;-53
2021/10/16 07:31:36;;;;;;;5.80;1.80;;;;;;;;;;5034010;28;20104;-50
2021/10/16 07:34:03;;;;;;;6.75;1.83;;;;;;;;;;5033492;28;20496;-54
2021/10/16 07:36:40;;;;;;;5.07;1.70;;;;;;;;;;5033983;28;20045;-47
2021/10/16 07:39:09;;;;;;;4.82;1.45;;;;;;;;;;5032917;28;20036;-59
2021/10/16 07:41:37;;;;;;;3.65;1.52;;;;;;;;;;5033651;28;20587;-53
2021/10/16 07:44:05;;;;;;;4.53;1.88;;;;;;;;;;5032408;28;20384;-55
2021/10/16 07:46:31;;;;;;;6.10;1.90;;;;;;;;;;5033836;28;20968;-49
2021/10/16 07:48:59;;;;;;;5.97;1.45;;;;;;;;;;5033573;28;20473;-53
2021/10/16 07:51:26;;;;;;;3.60;1.42;;;;;;;;;;5033516;28;20492;-56
2021/10/16 07:53:53;;;;;;;5.22;1.92;;;;;;;;;;5033151;28;20125;-56
2021/10/16 07:56:20;;;;;;;9.23;2.28;;;;;;;;;;5033371;28;20057;-53
2021/10/16 07:58:47;;;;;;;4.72;1.60;;;;;;;;;;5033238;28;20025;-50
2021/10/16 08:01:14;;;;;;;3.63;1.80;;;;;;;;;;5033110;28;20037;-52
2021/10/16 08:03:41;;;;;;;6.88;1.80;;;;;;;;;;5033214;28;20479;-53
2021/10/16 08:06:08;;;;;;;4.40;1.52;;;;;;;;;;5033523;28;20025;-54
2021/10/16 08:08:35;;;;;;;5.10;1.70;;;;;;;;;;5033250;28;20025;-50
2021/10/16 08:11:02;;;;;;;4.50;1.45;;;;;;;;;;5033302;28;20492;-52
2021/10/16 08:13:30;;;;;;;4.88;1.80;;;;;;;;;;5033124;28;20021;-58
2021/10/16 08:15:57;;;;;;;4.03;1.63;;;;;;;;;;5032728;28;20076;-53
2021/10/16 08:18:25;;;;;;;4.25;1.42;;;;;;;;;;5033155;28;20029;-55
2021/10/16 08:20:52;;;;;;;4.43;1.40;;;;;;;;;;5032918;28;20033;-55
2021/10/16 08:23:19;;;;;;;3.75;1.40;;;;;;;;;;5015711;28;20021;-56
2021/10/16 08:25:46;;;;;;;4.57;1.52;;;;;;;;;;5031784;28;20163;-53
2021/10/16 08:28:14;;;;;;;3.72;1.73;;;;;;;;;;5032709;28;20029;-52
2021/10/16 08:30:45;;;;;;;5.35;1.48;;;;;;;;;;5032759;28;20026;-54
2021/10/16 08:33:12;;;;;;;4.50;1.60;;;;;;;;;;5032257;28;20068;-54
2021/10/16 08:35:39;;;;;;;3.92;1.25;;;;;;;;;;5032710;28;20108;-52
2021/10/16 08:38:06;;;;;;;6.40;1.85;;;;;;;;;;5032562;28;20082;-54
2021/10/16 08:40:34;;;;;;;5.00;1.10;;;;;;;;;;5032051;28;20068;-58
2021/10/16 08:43:01;;;;;;;4.55;1.25;;;;;;;;;;5032321;28;20040;-61
2021/10/16 08:45:28;;;;;;;3.67;1.45;;;;;;;;;;5032411;28;20025;-54
2021/10/16 08:47:56;;;;;;;3.10;1.50;;;;;;;;;;5032227;28;20032;-65
2021/10/16 08:50:27;;;;;;;3.92;1.30;;;;;;;;;;5032455;28;20038;-55
2021/10/16 08:52:54;;;;;;;3.78;1.20;;;;;;;;;;5032170;28;20025;-53
2021/10/16 08:55:22;;;;;;;4.55;1.48;;;;;;;;;;5031812;28;20129;-54
2021/10/16 08:57:50;;;;;;;2.90;1.23;;;;;;;;;;5032619;28;20025;-55
2021/10/16 09:00:35;;;;;;;3.90;1.38;;;;;;;;;;5032249;28;20044;-61
2021/10/16 09:03:22;;;;;;;2.72;1.23;;;;;;;;;;5032590;28;20029;-53
2021/10/16 09:06:00;;;;;;;4.05;1.13;;;;;;;;;;5018727;28;20037;-54
2021/10/16 09:08:31;;;;;;;4.38;1.00;;;;;;;;;;5032105;28;20449;-51
2021/10/16 09:11:12;;;;;;;2.75;1.00;;;;;;;;;;5032240;28;20076;-55
2021/10/16 09:14:03;;;;;;;3.13;1.10;;;;;;;;;;5014335;28;20028;-57
2021/10/16 09:16:33;;;;;;;3.55;1.17;;;;;;;;;;5022374;28;20849;-53
2021/10/16 09:19:03;;;;;;;2.33;0.95;;;;;;;;;;5031701;28;20096;-51
2021/10/16 09:21:31;;;;;;;3.90;1.33;;;;;;;;;;5031743;28;20524;-54
2021/10/16 09:24:04;;;;;;;3.28;1.20;;;;;;;;;;5031921;28;20477;-53
2021/10/16 09:26:31;;;;;;;2.38;1.30;;;;;;;;;;5031987;28;20036;-56
2021/10/16 09:29:00;;;;;;;2.47;1.15;;;;;;;;;;5014307;28;20477;-51
2021/10/16 09:31:32;;;;;;;2.28;0.90;;;;;;;;;;5032033;28;20037;-55
2021/10/16 09:33:59;;;;;;;2.60;1.02;;;;;;;;;;5031952;28;20026;-55
2021/10/16 09:36:26;;;;;;;2.50;1.08;;;;;;;;;;5031864;28;20064;-54
2021/10/16 09:38:53;;;;;;;6.80;1.00;;;;;;;;;;5032030;28;20021;-52
2021/10/16 09:41:30;;;;;;;2.47;1.20;;;;;;;;;;5031632;28;20037;-54
2021/10/16 09:43:58;;;;;;;2.83;1.08;;;;;;;;;;5031705;28;20501;-54
2021/10/16 09:46:25;;;;;;;2.38;0.80;;;;;;;;;;5031953;28;20034;-54
2021/10/16 09:48:53;;;;;;;3.38;1.25;;;;;;;;;;5031815;28;20064;-55
2021/10/16 09:51:21;;;;;;;2.92;0.80;;;;;;;;;;5031803;28;20038;-55
2021/10/16 09:53:50;;;;;;;4.97;1.23;;;;;;;;;;5031681;28;20037;-55
2021/10/16 09:56:17;;;;;;;5.32;1.00;;;;;;;;;;5013990;28;20041;-60
2021/10/16 09:58:44;;;;;;;2.05;0.77;;;;;;;;;;5031657;28;20037;-54
2021/10/16 10:01:12;;;;;;;3.53;0.95;;;;;;;;;;5031561;28;20069;-59
2021/10/16 10:03:43;;;;;;;2.35;0.90;;;;;;;;;;5034427;28;20017;-54
2021/10/16 10:06:14;;;;;;;2.47;0.93;;;;;;;;;;5035286;28;20095;-53
2021/10/16 10:08:41;;;;;;;3.22;0.88;;;;;;;;;;5035497;28;20014;-55
2021/10/16 10:11:08;;;;;;;2.13;0.82;;;;;;;;;;5035293;28;20072;-55
2021/10/16 10:13:38;;;;;;;2.67;0.98;;;;;;;;;;5035287;28;20025;-52
2021/10/16 10:16:05;;;;;;;2.35;0.90;;;;;;;;;;5035166;28;20036;-53
2021/10/16 10:21:21;;;;;;;2.50;0.85;;;;;;;;;;5035690;28;20047;-57
2021/10/16 10:23:56;;;;;;;5.28;1.20;;;;;;;;;;5035691;28;20026;-53
2021/10/16 10:26:23;;;;;;;3.20;1.10;;;;;;;;;;5035462;28;20111;-50
2021/10/16 10:28:52;;;;;;;3.03;1.00;;;;;;;;;;5035421;28;20025;-48
2021/10/16 10:31:37;;;;;;;3.63;0.73;;;;;;;;;;5035861;28;20385;-53
2021/10/16 10:34:04;;;;;;;2.42;0.90;;;;;;;;;;5035482;28;20382;-54
2021/10/16 10:36:43;;;;;;;2.00;0.82;;;;;;;;;;5035431;28;20362;-53
2021/10/16 10:39:33;;;;;;;3.22;0.85;;;;;;;;;;5035105;28;20385;-53
2021/10/16 10:42:01;;;;;;;1.83;0.80;;;;;;;;;;5025159;28;20041;-50
2021/10/16 10:44:46;;;;;;;3.95;1.10;;;;;;;;;;5034769;28;20393;-53
2021/10/16 10:47:35;;;;;;;4.53;0.98;;;;;;;;;;5035353;28;20021;-50
2021/10/16 10:50:04;;;;;;;6.13;1.35;;;;;;;;;;5035237;28;20029;-51
2021/10/16 10:52:51;;;;;;;8.10;1.00;;;;;;;;;;5034889;28;20381;-50
2021/10/16 10:55:18;;;;;;;1.80;0.85;;;;;;;;;;5021158;28;20540;-55
2021/10/16 10:57:46;;;;;;;4.68;0.73;;;;;;;;;;5034744;28;20370;-49
2021/10/16 11:00:13;;;;;;;1.75;0.50;;;;;;;;;;5034563;28;20400;-49
2021/10/16 11:02:41;;;;;;;2.10;0.90;;;;;;;;;;5034767;28;20025;-56
2021/10/16 11:05:36;;;;;;;3.58;0.80;;;;;;;;;;5034686;28;20539;-54
2021/10/16 11:08:09;;;;;;;1.63;0.68;;;;;;;;;;5034358;28;20802;-53
2021/10/16 11:10:36;;;;;;;1.58;0.60;;;;;;;;;;5034576;28;20029;-55
2021/10/16 11:13:16;;;;;;;1.30;0.70;;;;;;;;;;5034448;28;20033;-49
2021/10/16 11:15:45;;;;;;;1.70;0.80;;;;;;;;;;5033233;28;20136;-52
2021/10/16 11:18:13;;;;;;;2.15;0.70;;;;;;;;;;5034271;28;20029;-54
2021/10/16 11:20:40;;;;;;;3.03;0.90;;;;;;;;;;5034093;28;20461;-50
2021/10/16 11:23:16;;;;;;;1.83;0.70;;;;;;;;;;5034184;28;20017;-53
2021/10/16 11:25:54;;;;;;;1.65;0.60;;;;;;;;;;5034089;28;20420;-54
2021/10/16 11:28:21;;;;;;;1.70;0.50;;;;;;;;;;5033991;28;20382;-48
2021/10/16 11:30:49;;;;;;;2.42;0.73;;;;;;;;;;5034055;28;20056;-51
2021/10/16 11:33:17;;;;;;;2.67;1.02;;;;;;;;;;5033700;28;20385;-50
2021/10/16 11:35:46;;;;;;;2.00;0.77;;;;;;;;;;5033715;28;20488;-51
2021/10/16 11:38:14;;;;;;;2.25;0.68;;;;;;;;;;5033926;28;20084;-52
2021/10/16 11:40:41;;;;;;;1.50;0.73;;;;;;;;;;5033886;28;20117;-54
2021/10/16 11:43:13;;;;;;;1.75;0.50;;;;;;;;;;5033495;28;20017;-49
2021/10/16 11:45:41;;;;;;;0.93;0.53;;;;;;;;;;5033401;28;20358;-54
2021/10/16 11:48:10;;;;;;;1.67;0.60;;;;;;;;;;5033540;28;20556;-54
2021/10/16 11:50:41;;;;;;;1.52;0.60;;;;;;;;;;5033574;28;20060;-53
2021/10/16 11:53:13;;;;;;;1.48;0.55;;;;;;;;;;5033401;28;20091;-54
2021/10/16 11:55:41;;;;;;;1.92;0.90;;;;;;;;;;5033385;28;20493;-55
2021/10/16 11:58:13;;;;;;;2.95;0.70;;;;;;;;;;5033454;28;20022;-57
2021/10/16 12:00:41;;;;;;;1.73;0.40;;;;;;;;;;5033116;28;20495;-56
2021/10/16 12:03:13;;;;;;;1.67;0.57;;;;;;;;;;5033350;28;20551;-58
2021/10/16 12:05:40;;;;;;;;;;;;;;;;;;5033938;28;20507;-53
2021/10/16 12:08:17;;;;;;;2.88;0.60;;;;;;;;;;5033339;28;20322;-54
2021/10/16 12:10:49;;;;;;;1.40;0.70;;;;;;;;;;5032993;28;20077;-61
2021/10/16 12:13:23;;;;;;;3.83;0.70;;;;;;;;;;5033196;28;20021;-54
2021/10/16 12:15:53;;;;;;;1.95;0.75;;;;;;;;;;5032925;28;20029;-57
2021/10/16 12:18:24;;;;;;;2.03;0.60;;;;;;;;;;5033204;28;20469;-55
2021/10/16 12:20:56;;;;;;;1.35;0.60;;;;;;;;;;5032965;28;20067;-52
2021/10/16 12:23:23;;;;;;;2.42;0.63;;;;;;;;;;5032633;28;20029;-49
2021/10/16 12:25:55;;;;;;;2.58;0.52;;;;;;;;;;5014817;28;20124;-53
2021/10/16 12:28:23;;;;;;;2.80;0.50;;;;;;;;;;5032846;28;20495;-53
2021/10/16 12:31:16;;;;;;;1.90;0.50;;;;;;;;;;5032706;28;20029;-49
2021/10/16 12:33:58;;;;;;;2.50;0.68;;;;;;;;;;5029693;28;20481;-53
2021/10/16 12:36:41;;;;;;;2.40;0.50;;;;;;;;;;5032768;28;20028;-55
2021/10/16 12:39:09;;;;;;;5.03;0.65;;;;;;;;;;5032749;28;20025;-53
2021/10/16 12:41:47;;;;;;;2.33;0.52;;;;;;;;;;5032540;28;20087;-53
2021/10/16 12:44:18;;;;;;;3.60;0.52;;;;;;;;;;5032752;28;20105;-55
2021/10/16 12:46:50;;;;;;;4.88;0.77;;;;;;;;;;5032817;28;20468;-54
2021/10/16 12:49:30;;;;;;;2.08;0.55;;;;;;;;;;5032541;28;20026;-52
2021/10/16 12:52:00;;;;;;;4.70;0.80;;;;;;;;;;5032257;28;20074;-55
2021/10/16 12:54:32;;;;;;;4.45;0.80;;;;;;;;;;5032230;28;20014;-51
2021/10/16 12:57:03;;;;;;;5.07;0.63;;;;;;;;;;5032161;28;20053;-50
2021/10/16 12:59:30;;;;;;;3.50;0.52;;;;;;;;;;5032359;28;20033;-49
2021/10/16 13:01:57;;;;;;;4.60;0.93;;;;;;;;;;5032313;28;20025;-55
2021/10/16 13:04:24;;;;;;;6.72;0.70;;;;;;;;;;5032434;28;20029;-53
2021/10/16 13:06:51;;;;;;;6.28;0.82;;;;;;;;;;5032548;28;20104;-51
2021/10/16 13:09:18;;;;;;;3.38;0.70;;;;;;;;;;5032431;28;20473;-52
2021/10/16 13:11:45;;;;;;;4.93;0.85;;;;;;;;;;5031314;28;20040;-55
2021/10/16 13:14:12;;;;;;;6.35;0.60;;;;;;;;;;5031010;28;20104;-55
2021/10/16 13:16:39;;;;;;;4.40;1.08;;;;;;;;;;5031987;28;20389;-53
2021/10/16 13:19:06;;;;;;;5.07;0.80;;;;;;;;;;5032252;28;20025;-53
2021/10/16 13:21:33;;;;;;;10.02;1.02;;;;;;;;;;5032102;28;20061;-53
2021/10/16 13:24:00;;;;;;;8.80;0.90;;;;;;;;;;5031856;28;20037;-53
2021/10/16 13:26:28;;;;;;;3.72;1.15;;;;;;;;;;5031986;28;20057;-54
2021/10/16 13:28:54;;;;;;;6.35;1.15;;;;;;;;;;5031535;28;20021;-55
2021/10/16 13:31:21;;;;;;;4.28;0.90;;;;;;;;;;5031738;28;20570;-62
2021/10/16 13:33:48;;;;;;;4.40;0.95;;;;;;;;;;5014123;28;20017;-53
2021/10/16 13:36:15;;;;;;;9.85;0.88;;;;;;;;;;5031755;28;20102;-49
2021/10/16 13:38:42;;;;;;;6.80;1.20;;;;;;;;;;5032884;28;20029;-54
2021/10/16 13:41:09;;;;;;;5.00;1.30;;;;;;;;;;5032722;28;20117;-50
2021/10/16 13:43:36;;;;;;;5.65;1.10;;;;;;;;;;5034434;28;20026;-51
2021/10/16 13:46:03;;;;;;;11.65;1.20;;;;;;;;;;5034946;28;20061;-50
2021/10/16 13:48:30;;;;;;;5.80;1.15;;;;;;;;;;5034432;28;20380;-50
2021/10/16 13:50:57;;;;;;;3.85;1.25;;;;;;;;;;5034378;28;20060;-50
2021/10/16 13:53:25;;;;;;;8.13;1.15;;;;;;;;;;5033857;28;20028;-50
2021/10/16 13:55:52;;;;;;;6.78;1.27;;;;;;;;;;5032290;28;20053;-46
2021/10/16 13:58:19;;;;;;;3.80;1.10;;;;;;;;;;5032229;28;20014;-50
2021/10/16 14:00:46;;;;;;;5.00;1.00;;;;;;;;;;5029613;28;20124;-61
2021/10/16 14:03:13;;;;;;;7.35;1.55;;;;;;;;;;5030639;28;20044;-49
2021/10/16 14:05:40;;;;;;;5.25;1.25;;;;;;;;;;5014900;28;20024;-52
2021/10/16 14:08:08;;;;;;;7.20;1.42;;;;;;;;;;5012657;28;20025;-51
2021/10/16 14:10:35;;;;;;;6.78;1.30;;;;;;;;;;5031782;28;20033;-55
2021/10/16 14:13:02;;;;;;;5.25;1.20;;;;;;;;;;5032316;28;20063;-46
2021/10/16 14:15:29;;;;;;;4.45;1.17;;;;;;;;;;5032355;28;20032;-54
2021/10/16 14:17:56;;;;;;;13.07;1.48;;;;;;;;;;5033138;28;20519;-49
2021/10/16 14:20:23;;;;;;;11.88;1.88;;;;;;;;;;5030995;28;20485;-47
2021/10/16 14:22:50;;;;;;;5.57;1.20;;;;;;;;;;5031990;28;20397;-53
2021/10/16 14:25:17;;;;;;;12.02;1.35;;;;;;;;;;5032177;28;20427;-50
2021/10/16 14:27:44;;;;;;;14.13;2.40;;;;;;;;;;5032825;28;20029;-51
2021/10/16 14:30:13;;;;;;;7.07;1.63;;;;;;;;;;5031063;28;20080;-55
2021/10/16 14:32:40;;;;;;;16.52;2.10;;;;;;;;;;5032937;28;20053;-56
2021/10/16 14:35:07;;;;;;;18.38;2.65;;;;;;;;;;5032854;28;20142;-51
2021/10/16 14:37:34;;;;;;;16.67;2.45;;;;;;;;;;5032317;28;20036;-53
2021/10/16 14:40:01;;;;;;;20.52;2.55;;;;;;;;;;5031861;28;20040;-57
2021/10/16 14:42:28;;;;;;;16.13;2.10;;;;;;;;;;5032288;28;20459;-54
2021/10/16 14:44:56;;;;;;;20.48;2.30;;;;;;;;;;5033121;28;20031;-56
2021/10/16 14:47:23;;;;;;;17.88;2.03;;;;;;;;;;5032880;28;20030;-55